sensor_id;sensor_type;location;lat;lon;timestamp;temperature;humidity
38514;DHT22;24282;48.400;10.808;2022-09-09T00:00:32;13.80;81.80
38514;DHT22;24282;48.400;10.808;2022-09-09T00:03:12;13.80;81.70
38514;DHT22;24282;48.400;10.808;2022-09-09T00:06:04;13.70;81.80
38514;DHT22;24282;48.400;10.808;2022-09-09T00:11:42;13.70;81.80
38514;DHT22;24282;48.400;10.808;2022-09-09T00:17:07;13.60;81.70
38514;DHT22;24282;48.400;10.808;2022-09-09T00:19:51;13.60;81.60
38514;DHT22;24282;48.400;10.808;2022-09-09T00:22:20;13.50;81.60
38514;DHT22;24282;48.400;10.808;2022-09-09T00:24:51;13.50;81.80
38514;DHT22;24282;48.400;10.808;2022-09-09T00:29:58;13.50;82.00
38514;DHT22;24282;48.400;10.808;2022-09-09T00:32:29;13.50;82.10
38514;DHT22;24282;48.400;10.808;2022-09-09T00:35:00;13.50;82.30
38514;DHT22;24282;48.400;10.808;2022-09-09T00:37:28;13.40;82.40
38514;DHT22;24282;48.400;10.808;2022-09-09T00:39:59;13.50;82.60
38514;DHT22;24282;48.400;10.808;2022-09-09T00:42:42;13.50;82.70
38514;DHT22;24282;48.400;10.808;2022-09-09T00:56:21;13.50;83.00
38514;DHT22;24282;48.400;10.808;2022-09-09T01:02:16;13.40;82.70
38514;DHT22;24282;48.400;10.808;2022-09-09T01:04:47;13.40;82.90
38514;DHT22;24282;48.400;10.808;2022-09-09T01:07:17;13.40;83.00
38514;DHT22;24282;48.400;10.808;2022-09-09T01:12:49;13.40;82.90
38514;DHT22;24282;48.400;10.808;2022-09-09T01:15:22;13.40;82.80
38514;DHT22;24282;48.400;10.808;2022-09-09T01:18:04;13.40;82.80
38514;DHT22;24282;48.400;10.808;2022-09-09T01:28:45;13.40;83.10
38514;DHT22;24282;48.400;10.808;2022-09-09T01:31:18;13.40;83.00
38514;DHT22;24282;48.400;10.808;2022-09-09T01:33:46;13.40;82.90
38514;DHT22;24282;48.400;10.808;2022-09-09T01:36:35;13.30;82.80
38514;DHT22;24282;48.400;10.808;2022-09-09T01:39:03;13.30;82.80
38514;DHT22;24282;48.400;10.808;2022-09-09T01:41:30;13.30;82.90
38514;DHT22;24282;48.400;10.808;2022-09-09T01:44:05;13.30;83.00
38514;DHT22;24282;48.400;10.808;2022-09-09T01:46:34;13.30;83.10
38514;DHT22;24282;48.400;10.808;2022-09-09T01:49:02;13.30;83.10
38514;DHT22;24282;48.400;10.808;2022-09-09T01:51:29;13.30;83.00
38514;DHT22;24282;48.400;10.808;2022-09-09T01:54:02;13.20;82.90
38514;DHT22;24282;48.400;10.808;2022-09-09T01:59:26;13.20;83.00
38514;DHT22;24282;48.400;10.808;2022-09-09T02:02:19;13.20;83.20
38514;DHT22;24282;48.400;10.808;2022-09-09T02:05:22;13.20;83.20
38514;DHT22;24282;48.400;10.808;2022-09-09T02:08:20;13.20;83.10
38514;DHT22;24282;48.400;10.808;2022-09-09T02:10:59;13.10;83.20
38514;DHT22;24282;48.400;10.808;2022-09-09T02:13:39;13.10;83.30
38514;DHT22;24282;48.400;10.808;2022-09-09T02:22:00;13.10;83.20
38514;DHT22;24282;48.400;10.808;2022-09-09T02:24:29;13.10;83.20
38514;DHT22;24282;48.400;10.808;2022-09-09T02:27:09;13.10;83.10
38514;DHT22;24282;48.400;10.808;2022-09-09T02:29:41;13.00;83.10
38514;DHT22;24282;48.400;10.808;2022-09-09T02:32:17;13.10;83.20
38514;DHT22;24282;48.400;10.808;2022-09-09T02:34:50;13.10;83.20
38514;DHT22;24282;48.400;10.808;2022-09-09T02:37:18;13.10;83.20
38514;DHT22;24282;48.400;10.808;2022-09-09T02:39:48;13.00;83.20
38514;DHT22;24282;48.400;10.808;2022-09-09T02:42:18;13.00;83.20
38514;DHT22;24282;48.400;10.808;2022-09-09T02:44:48;13.00;83.20
38514;DHT22;24282;48.400;10.808;2022-09-09T02:47:30;13.00;83.20
38514;DHT22;24282;48.400;10.808;2022-09-09T02:50:25;13.00;83.20
38514;DHT22;24282;48.400;10.808;2022-09-09T02:53:43;13.00;83.20
38514;DHT22;24282;48.400;10.808;2022-09-09T02:56:16;12.90;83.10
38514;DHT22;24282;48.400;10.808;2022-09-09T02:58:46;12.90;83.10
38514;DHT22;24282;48.400;10.808;2022-09-09T03:01:12;12.90;83.10
38514;DHT22;24282;48.400;10.808;2022-09-09T03:03:40;12.90;83.00
38514;DHT22;24282;48.400;10.808;2022-09-09T03:06:11;12.90;83.10
38514;DHT22;24282;48.400;10.808;2022-09-09T03:08:38;12.90;83.00
38514;DHT22;24282;48.400;10.808;2022-09-09T03:11:04;12.90;83.00
38514;DHT22;24282;48.400;10.808;2022-09-09T03:13:33;12.90;82.90
38514;DHT22;24282;48.400;10.808;2022-09-09T03:16:00;12.80;82.90
38514;DHT22;24282;48.400;10.808;2022-09-09T03:18:27;12.80;82.90
38514;DHT22;24282;48.400;10.808;2022-09-09T03:20:54;12.80;82.90
38514;DHT22;24282;48.400;10.808;2022-09-09T03:23:20;12.70;83.00
38514;DHT22;24282;48.400;10.808;2022-09-09T03:25:51;12.70;82.90
38514;DHT22;24282;48.400;10.808;2022-09-09T03:28:22;12.70;82.90
38514;DHT22;24282;48.400;10.808;2022-09-09T03:30:49;12.70;83.00
38514;DHT22;24282;48.400;10.808;2022-09-09T03:33:15;12.70;83.10
38514;DHT22;24282;48.400;10.808;2022-09-09T03:35:46;12.70;83.00
38514;DHT22;24282;48.400;10.808;2022-09-09T03:38:14;12.70;83.20
38514;DHT22;24282;48.400;10.808;2022-09-09T03:40:48;12.60;83.10
38514;DHT22;24282;48.400;10.808;2022-09-09T03:43:14;12.60;83.10
38514;DHT22;24282;48.400;10.808;2022-09-09T03:45:46;12.60;83.00
38514;DHT22;24282;48.400;10.808;2022-09-09T03:48:14;12.60;82.90
38514;DHT22;24282;48.400;10.808;2022-09-09T03:50:50;12.60;82.90
38514;DHT22;24282;48.400;10.808;2022-09-09T03:53:17;12.50;82.80
38514;DHT22;24282;48.400;10.808;2022-09-09T03:55:44;12.50;82.80
38514;DHT22;24282;48.400;10.808;2022-09-09T03:58:12;12.50;82.90
38514;DHT22;24282;48.400;10.808;2022-09-09T04:00:39;12.50;83.00
38514;DHT22;24282;48.400;10.808;2022-09-09T04:03:12;12.50;83.10
38514;DHT22;24282;48.400;10.808;2022-09-09T04:05:39;12.50;83.10
38514;DHT22;24282;48.400;10.808;2022-09-09T04:08:08;12.50;83.10
38514;DHT22;24282;48.400;10.808;2022-09-09T04:10:35;12.50;83.40
38514;DHT22;24282;48.400;10.808;2022-09-09T04:13:04;12.40;83.40
38514;DHT22;24282;48.400;10.808;2022-09-09T04:15:31;12.40;83.50
38514;DHT22;24282;48.400;10.808;2022-09-09T04:17:57;12.40;83.50
38514;DHT22;24282;48.400;10.808;2022-09-09T04:20:26;12.40;83.50
38514;DHT22;24282;48.400;10.808;2022-09-09T04:22:52;12.40;83.60
38514;DHT22;24282;48.400;10.808;2022-09-09T04:25:18;12.50;83.50
38514;DHT22;24282;48.400;10.808;2022-09-09T04:27:43;12.50;83.70
38514;DHT22;24282;48.400;10.808;2022-09-09T04:30:10;12.50;83.70
38514;DHT22;24282;48.400;10.808;2022-09-09T04:32:36;12.50;83.80
38514;DHT22;24282;48.400;10.808;2022-09-09T04:35:03;12.60;83.90
38514;DHT22;24282;48.400;10.808;2022-09-09T04:37:29;12.60;83.90
38514;DHT22;24282;48.400;10.808;2022-09-09T04:39:56;12.60;83.80
38514;DHT22;24282;48.400;10.808;2022-09-09T04:42:21;12.60;83.90
38514;DHT22;24282;48.400;10.808;2022-09-09T04:44:48;12.70;84.10
38514;DHT22;24282;48.400;10.808;2022-09-09T04:47:15;12.70;84.30
38514;DHT22;24282;48.400;10.808;2022-09-09T04:49:41;12.70;84.40
38514;DHT22;24282;48.400;10.808;2022-09-09T04:52:07;12.70;84.40
38514;DHT22;24282;48.400;10.808;2022-09-09T04:54:34;12.70;84.40
38514;DHT22;24282;48.400;10.808;2022-09-09T04:57:00;12.80;84.40
38514;DHT22;24282;48.400;10.808;2022-09-09T04:59:26;12.80;84.60
38514;DHT22;24282;48.400;10.808;2022-09-09T05:01:58;12.80;84.60
38514;DHT22;24282;48.400;10.808;2022-09-09T05:04:23;12.80;84.60
38514;DHT22;24282;48.400;10.808;2022-09-09T05:06:50;12.80;84.70
38514;DHT22;24282;48.400;10.808;2022-09-09T05:09:15;12.80;84.90
38514;DHT22;24282;48.400;10.808;2022-09-09T05:11:43;12.90;84.90
38514;DHT22;24282;48.400;10.808;2022-09-09T05:14:29;12.90;84.80
38514;DHT22;24282;48.400;10.808;2022-09-09T05:16:55;12.90;84.90
38514;DHT22;24282;48.400;10.808;2022-09-09T05:19:23;12.90;85.00
38514;DHT22;24282;48.400;10.808;2022-09-09T05:21:51;12.90;84.80
38514;DHT22;24282;48.400;10.808;2022-09-09T05:24:21;13.00;85.40
38514;DHT22;24282;48.400;10.808;2022-09-09T05:26:51;13.00;85.40
38514;DHT22;24282;48.400;10.808;2022-09-09T05:29:17;13.00;85.70
38514;DHT22;24282;48.400;10.808;2022-09-09T05:31:45;13.00;86.00
38514;DHT22;24282;48.400;10.808;2022-09-09T05:34:14;13.10;86.30
38514;DHT22;24282;48.400;10.808;2022-09-09T05:36:40;13.20;86.20
38514;DHT22;24282;48.400;10.808;2022-09-09T05:39:06;13.20;86.20
38514;DHT22;24282;48.400;10.808;2022-09-09T05:41:33;13.30;86.60
38514;DHT22;24282;48.400;10.808;2022-09-09T05:44:02;13.30;86.70
38514;DHT22;24282;48.400;10.808;2022-09-09T05:46:32;13.40;86.80
38514;DHT22;24282;48.400;10.808;2022-09-09T05:48:58;13.40;86.80
38514;DHT22;24282;48.400;10.808;2022-09-09T05:51:29;13.40;86.90
38514;DHT22;24282;48.400;10.808;2022-09-09T05:54:01;13.50;87.20
38514;DHT22;24282;48.400;10.808;2022-09-09T05:56:30;13.50;86.90
38514;DHT22;24282;48.400;10.808;2022-09-09T05:58:58;13.50;86.00
38514;DHT22;24282;48.400;10.808;2022-09-09T06:01:36;13.60;85.60
38514;DHT22;24282;48.400;10.808;2022-09-09T06:04:06;13.60;85.80
38514;DHT22;24282;48.400;10.808;2022-09-09T06:06:35;13.70;85.90
38514;DHT22;24282;48.400;10.808;2022-09-09T06:09:03;13.70;86.10
38514;DHT22;24282;48.400;10.808;2022-09-09T06:11:35;13.70;86.50
38514;DHT22;24282;48.400;10.808;2022-09-09T06:14:02;13.70;86.70
38514;DHT22;24282;48.400;10.808;2022-09-09T06:16:30;13.80;86.70
38514;DHT22;24282;48.400;10.808;2022-09-09T06:19:00;13.80;86.60
38514;DHT22;24282;48.400;10.808;2022-09-09T06:21:30;13.90;86.40
38514;DHT22;24282;48.400;10.808;2022-09-09T06:24:00;13.90;86.50
38514;DHT22;24282;48.400;10.808;2022-09-09T06:26:33;13.90;86.70
38514;DHT22;24282;48.400;10.808;2022-09-09T06:29:01;13.90;86.30
38514;DHT22;24282;48.400;10.808;2022-09-09T06:31:31;13.90;86.10
38514;DHT22;24282;48.400;10.808;2022-09-09T06:34:01;13.90;86.10
38514;DHT22;24282;48.400;10.808;2022-09-09T06:36:30;13.90;86.20
38514;DHT22;24282;48.400;10.808;2022-09-09T06:38:57;14.00;86.30
38514;DHT22;24282;48.400;10.808;2022-09-09T06:41:25;14.00;86.00
38514;DHT22;24282;48.400;10.808;2022-09-09T06:43:52;14.10;85.70
38514;DHT22;24282;48.400;10.808;2022-09-09T06:46:26;14.10;85.80
38514;DHT22;24282;48.400;10.808;2022-09-09T06:48:57;14.20;85.70
38514;DHT22;24282;48.400;10.808;2022-09-09T06:51:34;14.20;85.60
38514;DHT22;24282;48.400;10.808;2022-09-09T06:54:03;14.30;85.50
38514;DHT22;24282;48.400;10.808;2022-09-09T06:56:38;14.40;85.40
38514;DHT22;24282;48.400;10.808;2022-09-09T06:59:10;14.40;85.40
38514;DHT22;24282;48.400;10.808;2022-09-09T07:01:42;14.50;85.30
38514;DHT22;24282;48.400;10.808;2022-09-09T07:04:15;14.50;85.20
38514;DHT22;24282;48.400;10.808;2022-09-09T07:06:44;14.50;85.60
38514;DHT22;24282;48.400;10.808;2022-09-09T07:09:15;14.50;85.60
38514;DHT22;24282;48.400;10.808;2022-09-09T07:11:46;14.50;85.70
38514;DHT22;24282;48.400;10.808;2022-09-09T07:14:13;14.60;86.40
38514;DHT22;24282;48.400;10.808;2022-09-09T07:16:44;14.60;86.10
38514;DHT22;24282;48.400;10.808;2022-09-09T07:19:11;14.60;86.20
38514;DHT22;24282;48.400;10.808;2022-09-09T07:21:38;14.60;86.60
38514;DHT22;24282;48.400;10.808;2022-09-09T07:24:06;14.70;86.80
38514;DHT22;24282;48.400;10.808;2022-09-09T07:26:38;14.70;87.10
38514;DHT22;24282;48.400;10.808;2022-09-09T07:29:04;14.70;87.10
38514;DHT22;24282;48.400;10.808;2022-09-09T07:31:34;14.80;87.50
38514;DHT22;24282;48.400;10.808;2022-09-09T07:34:01;14.80;87.50
38514;DHT22;24282;48.400;10.808;2022-09-09T07:36:29;14.80;87.20
38514;DHT22;24282;48.400;10.808;2022-09-09T07:38:58;14.90;87.20
38514;DHT22;24282;48.400;10.808;2022-09-09T07:41:40;14.90;87.40
38514;DHT22;24282;48.400;10.808;2022-09-09T07:44:26;14.90;87.70
38514;DHT22;24282;48.400;10.808;2022-09-09T07:47:09;14.90;87.80
38514;DHT22;24282;48.400;10.808;2022-09-09T07:49:39;14.90;88.00
38514;DHT22;24282;48.400;10.808;2022-09-09T07:52:07;14.90;87.40
38514;DHT22;24282;48.400;10.808;2022-09-09T07:54:34;14.90;87.10
38514;DHT22;24282;48.400;10.808;2022-09-09T07:57:04;14.90;87.00
38514;DHT22;24282;48.400;10.808;2022-09-09T07:59:32;14.90;87.10
38514;DHT22;24282;48.400;10.808;2022-09-09T08:01:58;14.90;87.70
38514;DHT22;24282;48.400;10.808;2022-09-09T08:04:27;15.00;88.10
38514;DHT22;24282;48.400;10.808;2022-09-09T08:06:59;15.00;88.10
38514;DHT22;24282;48.400;10.808;2022-09-09T08:09:27;15.00;87.70
38514;DHT22;24282;48.400;10.808;2022-09-09T08:12:00;15.10;87.90
38514;DHT22;24282;48.400;10.808;2022-09-09T08:14:28;15.20;87.90
38514;DHT22;24282;48.400;10.808;2022-09-09T08:16:56;15.20;87.80
38514;DHT22;24282;48.400;10.808;2022-09-09T08:19:24;15.30;87.60
38514;DHT22;24282;48.400;10.808;2022-09-09T08:21:52;15.30;87.40
38514;DHT22;24282;48.400;10.808;2022-09-09T08:24:17;15.40;87.50
38514;DHT22;24282;48.400;10.808;2022-09-09T08:26:48;15.40;87.70
38514;DHT22;24282;48.400;10.808;2022-09-09T08:29:16;15.50;87.60
38514;DHT22;24282;48.400;10.808;2022-09-09T08:31:51;15.60;87.60
38514;DHT22;24282;48.400;10.808;2022-09-09T08:34:20;15.70;87.40
38514;DHT22;24282;48.400;10.808;2022-09-09T08:36:49;15.90;87.00
38514;DHT22;24282;48.400;10.808;2022-09-09T08:39:19;16.00;86.70
38514;DHT22;24282;48.400;10.808;2022-09-09T08:50:29;16.50;85.80
38514;DHT22;24282;48.400;10.808;2022-09-09T08:53:11;16.70;85.20
38514;DHT22;24282;48.400;10.808;2022-09-09T08:58:26;17.20;84.00
38514;DHT22;24282;48.400;10.808;2022-09-09T09:09:05;17.40;83.20
38514;DHT22;24282;48.400;10.808;2022-09-09T09:11:38;17.40;83.20
38514;DHT22;24282;48.400;10.808;2022-09-09T09:14:12;17.60;83.00
38514;DHT22;24282;48.400;10.808;2022-09-09T09:17:05;17.80;82.10
38514;DHT22;24282;48.400;10.808;2022-09-09T09:19:34;17.80;82.00
38514;DHT22;24282;48.400;10.808;2022-09-09T09:22:23;17.90;80.40
38514;DHT22;24282;48.400;10.808;2022-09-09T09:25:22;17.80;80.70
38514;DHT22;24282;48.400;10.808;2022-09-09T09:28:12;17.80;81.60
38514;DHT22;24282;48.400;10.808;2022-09-09T09:33:23;17.80;81.80
38514;DHT22;24282;48.400;10.808;2022-09-09T09:35:52;17.80;82.10
38514;DHT22;24282;48.400;10.808;2022-09-09T09:38:23;17.80;81.90
38514;DHT22;24282;48.400;10.808;2022-09-09T09:40:55;17.90;81.70
38514;DHT22;24282;48.400;10.808;2022-09-09T09:43:29;18.00;80.50
38514;DHT22;24282;48.400;10.808;2022-09-09T09:45:58;18.00;80.70
38514;DHT22;24282;48.400;10.808;2022-09-09T09:48:26;18.00;81.00
38514;DHT22;24282;48.400;10.808;2022-09-09T09:51:14;18.10;81.80
38514;DHT22;24282;48.400;10.808;2022-09-09T09:53:42;18.20;81.20
38514;DHT22;24282;48.400;10.808;2022-09-09T09:56:12;18.20;80.10
38514;DHT22;24282;48.400;10.808;2022-09-09T10:04:20;18.30;80.00
38514;DHT22;24282;48.400;10.808;2022-09-09T10:06:50;18.40;79.50
38514;DHT22;24282;48.400;10.808;2022-09-09T10:09:28;18.40;78.30
38514;DHT22;24282;48.400;10.808;2022-09-09T10:14:50;18.50;78.20
38514;DHT22;24282;48.400;10.808;2022-09-09T10:17:42;18.60;78.00
38514;DHT22;24282;48.400;10.808;2022-09-09T10:28:38;19.10;76.50
38514;DHT22;24282;48.400;10.808;2022-09-09T10:31:20;19.00;76.50
38514;DHT22;24282;48.400;10.808;2022-09-09T10:36:25;19.00;76.80
38514;DHT22;24282;48.400;10.808;2022-09-09T10:39:35;18.90;76.80
38514;DHT22;24282;48.400;10.808;2022-09-09T10:52:45;18.60;77.70
38514;DHT22;24282;48.400;10.808;2022-09-09T10:55:33;18.50;78.30
38514;DHT22;24282;48.400;10.808;2022-09-09T10:58:03;18.50;78.40
38514;DHT22;24282;48.400;10.808;2022-09-09T11:00:47;18.40;78.20
38514;DHT22;24282;48.400;10.808;2022-09-09T11:03:20;18.50;78.30
38514;DHT22;24282;48.400;10.808;2022-09-09T11:05:50;18.60;78.00
38514;DHT22;24282;48.400;10.808;2022-09-09T11:08:20;18.60;78.30
38514;DHT22;24282;48.400;10.808;2022-09-09T11:16:28;18.70;77.70
38514;DHT22;24282;48.400;10.808;2022-09-09T11:19:11;18.80;77.10
38514;DHT22;24282;48.400;10.808;2022-09-09T11:21:45;18.90;77.20
38514;DHT22;24282;48.400;10.808;2022-09-09T11:24:22;18.90;77.00
38514;DHT22;24282;48.400;10.808;2022-09-09T11:38:29;19.10;76.80
38514;DHT22;24282;48.400;10.808;2022-09-09T11:41:03;19.10;76.80
38514;DHT22;24282;48.400;10.808;2022-09-09T11:43:50;19.00;76.70
38514;DHT22;24282;48.400;10.808;2022-09-09T11:46:32;18.90;76.80
38514;DHT22;24282;48.400;10.808;2022-09-09T11:49:02;18.90;77.10
38514;DHT22;24282;48.400;10.808;2022-09-09T11:51:30;18.90;76.60
38514;DHT22;24282;48.400;10.808;2022-09-09T11:56:45;19.20;75.60
38514;DHT22;24282;48.400;10.808;2022-09-09T11:59:23;19.20;75.50
38514;DHT22;24282;48.400;10.808;2022-09-09T12:04:39;19.30;76.40
38514;DHT22;24282;48.400;10.808;2022-09-09T12:09:46;19.40;75.90
38514;DHT22;24282;48.400;10.808;2022-09-09T12:17:25;19.80;74.40
38514;DHT22;24282;48.400;10.808;2022-09-09T12:28:58;20.10;72.90
38514;DHT22;24282;48.400;10.808;2022-09-09T12:31:06;20.10;73.00
38514;DHT22;24282;48.400;10.808;2022-09-09T12:33:39;20.10;71.80
38514;DHT22;24282;48.400;10.808;2022-09-09T12:36:17;20.10;71.50
38514;DHT22;24282;48.400;10.808;2022-09-09T12:38:45;20.10;72.10
38514;DHT22;24282;48.400;10.808;2022-09-09T12:43:46;20.10;72.00
38514;DHT22;24282;48.400;10.808;2022-09-09T12:46:36;20.20;72.10
38514;DHT22;24282;48.400;10.808;2022-09-09T12:49:04;20.20;72.80
38514;DHT22;24282;48.400;10.808;2022-09-09T12:51:32;20.20;73.40
38514;DHT22;24282;48.400;10.808;2022-09-09T12:53:59;20.30;73.30
38514;DHT22;24282;48.400;10.808;2022-09-09T12:56:28;20.30;73.10
38514;DHT22;24282;48.400;10.808;2022-09-09T12:58:57;20.30;73.20
38514;DHT22;24282;48.400;10.808;2022-09-09T13:01:26;20.30;72.80
38514;DHT22;24282;48.400;10.808;2022-09-09T13:03:52;20.30;73.00
38514;DHT22;24282;48.400;10.808;2022-09-09T13:06:26;20.20;72.80
38514;DHT22;24282;48.400;10.808;2022-09-09T13:08:53;20.10;72.60
38514;DHT22;24282;48.400;10.808;2022-09-09T13:11:41;20.10;72.60
38514;DHT22;24282;48.400;10.808;2022-09-09T13:14:16;20.30;71.90
38514;DHT22;24282;48.400;10.808;2022-09-09T13:16:57;20.50;72.00
38514;DHT22;24282;48.400;10.808;2022-09-09T13:19:24;20.80;70.80
38514;DHT22;24282;48.400;10.808;2022-09-09T13:21:55;21.00;69.30
38514;DHT22;24282;48.400;10.808;2022-09-09T13:27:05;21.10;67.00
38514;DHT22;24282;48.400;10.808;2022-09-09T13:29:51;21.20;66.00
38514;DHT22;24282;48.400;10.808;2022-09-09T13:32:21;21.10;66.00
38514;DHT22;24282;48.400;10.808;2022-09-09T13:34:55;21.10;66.40
38514;DHT22;24282;48.400;10.808;2022-09-09T13:39:55;21.20;66.60
38514;DHT22;24282;48.400;10.808;2022-09-09T13:42:29;21.10;66.70
38514;DHT22;24282;48.400;10.808;2022-09-09T13:44:58;20.90;67.10
38514;DHT22;24282;48.400;10.808;2022-09-09T13:47:35;20.70;68.00
38514;DHT22;24282;48.400;10.808;2022-09-09T13:52:47;20.20;68.50
38514;DHT22;24282;48.400;10.808;2022-09-09T13:55:14;20.00;68.70
38514;DHT22;24282;48.400;10.808;2022-09-09T13:58:14;19.80;68.90
38514;DHT22;24282;48.400;10.808;2022-09-09T14:00:38;19.70;69.80
38514;DHT22;24282;48.400;10.808;2022-09-09T14:03:05;19.60;73.80
38514;DHT22;24282;48.400;10.808;2022-09-09T14:05:33;19.40;74.50
38514;DHT22;24282;48.400;10.808;2022-09-09T14:08:03;19.30;74.60
38514;DHT22;24282;48.400;10.808;2022-09-09T14:10:33;19.10;75.30
38514;DHT22;24282;48.400;10.808;2022-09-09T14:13:01;19.10;74.60
38514;DHT22;24282;48.400;10.808;2022-09-09T14:15:27;19.00;75.50
38514;DHT22;24282;48.400;10.808;2022-09-09T14:17:52;19.00;76.00
38514;DHT22;24282;48.400;10.808;2022-09-09T14:20:18;19.00;77.60
38514;DHT22;24282;48.400;10.808;2022-09-09T14:22:45;19.10;77.70
38514;DHT22;24282;48.400;10.808;2022-09-09T14:25:11;19.20;77.90
38514;DHT22;24282;48.400;10.808;2022-09-09T14:27:39;19.20;77.10
38514;DHT22;24282;48.400;10.808;2022-09-09T14:30:06;19.30;78.50
38514;DHT22;24282;48.400;10.808;2022-09-09T14:32:32;19.40;77.50
38514;DHT22;24282;48.400;10.808;2022-09-09T14:34:58;19.40;76.30
38514;DHT22;24282;48.400;10.808;2022-09-09T14:37:24;19.50;75.40
38514;DHT22;24282;48.400;10.808;2022-09-09T14:39:51;19.50;76.70
38514;DHT22;24282;48.400;10.808;2022-09-09T14:42:17;19.50;77.70
38514;DHT22;24282;48.400;10.808;2022-09-09T14:44:42;19.50;78.30
38514;DHT22;24282;48.400;10.808;2022-09-09T14:47:09;19.50;78.50
38514;DHT22;24282;48.400;10.808;2022-09-09T14:49:35;19.50;78.50
38514;DHT22;24282;48.400;10.808;2022-09-09T14:52:01;19.60;78.00
38514;DHT22;24282;48.400;10.808;2022-09-09T14:54:27;19.50;77.00
38514;DHT22;24282;48.400;10.808;2022-09-09T14:56:53;19.40;76.40
38514;DHT22;24282;48.400;10.808;2022-09-09T14:59:19;19.40;76.30
38514;DHT22;24282;48.400;10.808;2022-09-09T15:01:45;19.40;76.80
38514;DHT22;24282;48.400;10.808;2022-09-09T15:04:12;19.50;77.70
38514;DHT22;24282;48.400;10.808;2022-09-09T15:06:40;19.60;77.90
38514;DHT22;24282;48.400;10.808;2022-09-09T15:09:08;19.70;75.10
38514;DHT22;24282;48.400;10.808;2022-09-09T15:11:35;19.60;75.90
38514;DHT22;24282;48.400;10.808;2022-09-09T15:14:08;19.60;76.50
38514;DHT22;24282;48.400;10.808;2022-09-09T15:16:34;19.60;76.90
38514;DHT22;24282;48.400;10.808;2022-09-09T15:19:01;19.60;76.60
38514;DHT22;24282;48.400;10.808;2022-09-09T15:21:33;19.50;76.00
38514;DHT22;24282;48.400;10.808;2022-09-09T15:23:59;19.50;75.10
38514;DHT22;24282;48.400;10.808;2022-09-09T15:26:26;19.50;75.10
38514;DHT22;24282;48.400;10.808;2022-09-09T15:28:53;19.50;75.70
38514;DHT22;24282;48.400;10.808;2022-09-09T15:31:22;19.50;75.90
38514;DHT22;24282;48.400;10.808;2022-09-09T15:33:51;19.40;76.60
38514;DHT22;24282;48.400;10.808;2022-09-09T15:36:22;19.40;77.50
38514;DHT22;24282;48.400;10.808;2022-09-09T15:38:48;19.30;77.90
38514;DHT22;24282;48.400;10.808;2022-09-09T15:41:16;19.30;78.40
38514;DHT22;24282;48.400;10.808;2022-09-09T15:43:47;19.10;78.60
38514;DHT22;24282;48.400;10.808;2022-09-09T15:48:44;19.10;78.60
38514;DHT22;24282;48.400;10.808;2022-09-09T15:51:11;18.90;79.20
38514;DHT22;24282;48.400;10.808;2022-09-09T15:53:37;18.90;79.90
38514;DHT22;24282;48.400;10.808;2022-09-09T15:56:05;18.80;79.60
38514;DHT22;24282;48.400;10.808;2022-09-09T15:58:32;18.70;80.20
38514;DHT22;24282;48.400;10.808;2022-09-09T16:01:16;18.80;80.40
38514;DHT22;24282;48.400;10.808;2022-09-09T16:03:43;18.80;80.30
38514;DHT22;24282;48.400;10.808;2022-09-09T16:06:12;18.80;80.20
38514;DHT22;24282;48.400;10.808;2022-09-09T16:08:41;18.80;80.50
38514;DHT22;24282;48.400;10.808;2022-09-09T16:11:15;18.80;80.70
38514;DHT22;24282;48.400;10.808;2022-09-09T16:13:42;18.80;79.80
38514;DHT22;24282;48.400;10.808;2022-09-09T16:16:11;18.80;78.90
38514;DHT22;24282;48.400;10.808;2022-09-09T16:18:46;18.70;80.10
38514;DHT22;24282;48.400;10.808;2022-09-09T16:21:18;18.60;81.00
38514;DHT22;24282;48.400;10.808;2022-09-09T16:23:44;18.60;79.80
38514;DHT22;24282;48.400;10.808;2022-09-09T16:26:12;18.50;80.20
38514;DHT22;24282;48.400;10.808;2022-09-09T16:28:38;18.50;80.30
38514;DHT22;24282;48.400;10.808;2022-09-09T16:31:06;18.40;80.70
38514;DHT22;24282;48.400;10.808;2022-09-09T16:33:32;18.40;81.10
38514;DHT22;24282;48.400;10.808;2022-09-09T16:35:58;18.40;81.60
38514;DHT22;24282;48.400;10.808;2022-09-09T16:38:23;18.40;82.00
38514;DHT22;24282;48.400;10.808;2022-09-09T16:40:49;18.30;81.90
38514;DHT22;24282;48.400;10.808;2022-09-09T16:43:15;18.40;81.70
38514;DHT22;24282;48.400;10.808;2022-09-09T16:45:45;18.30;82.30
38514;DHT22;24282;48.400;10.808;2022-09-09T16:48:11;18.30;82.60
38514;DHT22;24282;48.400;10.808;2022-09-09T16:50:37;18.40;81.30
38514;DHT22;24282;48.400;10.808;2022-09-09T16:53:04;18.40;81.70
38514;DHT22;24282;48.400;10.808;2022-09-09T16:55:40;18.30;82.60
38514;DHT22;24282;48.400;10.808;2022-09-09T16:58:15;18.30;81.80
38514;DHT22;24282;48.400;10.808;2022-09-09T17:00:41;18.30;81.40
38514;DHT22;24282;48.400;10.808;2022-09-09T17:03:14;18.20;81.40
38514;DHT22;24282;48.400;10.808;2022-09-09T17:05:40;18.20;82.20
38514;DHT22;24282;48.400;10.808;2022-09-09T17:08:07;18.10;82.00
38514;DHT22;24282;48.400;10.808;2022-09-09T17:10:41;18.10;82.30
38514;DHT22;24282;48.400;10.808;2022-09-09T17:13:07;18.00;82.60
38514;DHT22;24282;48.400;10.808;2022-09-09T17:15:34;18.00;83.20
38514;DHT22;24282;48.400;10.808;2022-09-09T17:18:05;17.90;83.60
38514;DHT22;24282;48.400;10.808;2022-09-09T17:20:35;17.90;83.90
38514;DHT22;24282;48.400;10.808;2022-09-09T17:23:01;17.90;84.30
38514;DHT22;24282;48.400;10.808;2022-09-09T17:25:27;17.90;84.60
38514;DHT22;24282;48.400;10.808;2022-09-09T17:27:52;17.90;84.90
38514;DHT22;24282;48.400;10.808;2022-09-09T17:30:18;17.80;85.00
38514;DHT22;24282;48.400;10.808;2022-09-09T17:32:45;17.80;84.20
38514;DHT22;24282;48.400;10.808;2022-09-09T17:35:11;17.80;83.50
38514;DHT22;24282;48.400;10.808;2022-09-09T17:37:37;17.80;83.70
38514;DHT22;24282;48.400;10.808;2022-09-09T17:40:03;17.70;84.40
38514;DHT22;24282;48.400;10.808;2022-09-09T17:42:29;17.70;84.80
38514;DHT22;24282;48.400;10.808;2022-09-09T17:44:55;17.60;85.00
38514;DHT22;24282;48.400;10.808;2022-09-09T17:47:21;17.60;85.20
38514;DHT22;24282;48.400;10.808;2022-09-09T17:49:47;17.50;85.30
38514;DHT22;24282;48.400;10.808;2022-09-09T17:52:16;17.50;85.50
38514;DHT22;24282;48.400;10.808;2022-09-09T17:54:44;17.40;85.70
38514;DHT22;24282;48.400;10.808;2022-09-09T17:57:10;17.40;86.00
38514;DHT22;24282;48.400;10.808;2022-09-09T17:59:36;17.40;85.50
38514;DHT22;24282;48.400;10.808;2022-09-09T18:02:02;17.40;85.80
38514;DHT22;24282;48.400;10.808;2022-09-09T18:04:30;17.50;85.90